Mobile Site You Are Here >  >  >  > Career Game Log

Dedrick Dewalt Career Game Log

School: Boston College
Position: WR

11

Output includes regular season games from 2000 to 2014 and bowl games from 2002 to 2013.

Game Log

Receiving Rushing Kick Ret Punt Ret
Rk Year Date School Opponent Rec Yds Avg TD Att Yds Avg TD Ret Yds Avg TD Ret Yds Avg TD
1 2000 2000-09-02 Boston College @ West Virginia L 2 28 14.0 0 0 0 0 0 0 0 5 27 5.4 0
2 2000 2000-09-09 Boston College @ Army W 3 122 40.7 2 0 0 0 0 0 0 0 0 0
3 2000 2000-09-23 Boston College Navy W 6 111 18.5 2 0 0 0 0 0 0 2 35 17.5 0
4 2000 2000-09-30 Boston College Virginia Tech L 3 15 5.0 0 0 0 0 0 0 0 1 6 6.0 0
5 2000 2000-10-07 Boston College Connecticut W 2 64 32.0 1 0 0 0 0 0 0 2 78 39.0 1
6 2000 2000-10-14 Boston College Syracuse W 2 14 7.0 0 0 0 0 0 0 0 1 -5 -5.0 0
7 2000 2000-10-21 Boston College @ Pittsburgh L 8 183 22.9 1 0 0 0 0 0 0 2 2 1.0 0
8 2000 2000-10-28 Boston College Rutgers W 0 0 0 0 0 0 0 0 0 2 8 4.0 0
9 2000 2000-11-04 Boston College Temple W 6 83 13.8 1 0 0 0 0 0 0 4 25 6.3 0
10 2000 2000-11-11 Boston College @ Notre Dame L 2 24 12.0 1 1 33 33.0 0 0 0 0 3 23 7.7 0
11 2000 2000-11-25 Boston College @ Miami (FL) L 4 32 8.0 0 0 0 0 0 0 0 1 7 7.0 0
Receiving Rushing Kick Ret Punt Ret
Rk Year Date School Opponent Rec Yds Avg TD Att Yds Avg TD Ret Yds Avg TD Ret Yds Avg TD
12 2001 2001-09-01 Boston College West Virginia W 5 71 14.2 1 0 0 0 0 0 0 2 43 21.5 0
13 2001 2001-09-08 Boston College @ Stanford L 2 23 11.5 0 2 19 9.5 0 0 0 0 1 0 0.0 0
14 2001 2001-09-22 Boston College @ Navy W 4 49 12.3 0 0 0 0 0 0 0 3 0 0.0 0
15 2001 2001-09-29 Boston College Army W 7 84 12.0 1 0 0 0 0 0 0 3 5 1.7 0
16 2001 2001-10-06 Boston College Temple W 2 15 7.5 0 0 0 0 1 12 12.0 0 2 10 5.0 0
17 2001 2001-10-13 Boston College @ Virginia Tech L 4 60 15.0 0 0 0 0 0 0 0 0 0 0
18 2001 2001-10-20 Boston College Pittsburgh W 3 41 13.7 0 0 0 0 0 0 0 1 8 8.0 0
19 2001 2001-10-27 Boston College Notre Dame W 1 30 30.0 0 0 0 0 0 0 0 2 20 10.0 0
20 2001 2001-11-10 Boston College Miami (FL) L 1 21 21.0 0 0 0 0 0 0 0 2 0 0.0 0
21 2001 2001-11-17 Boston College @ Rutgers W 3 23 7.7 1 0 0 0 0 0 0 2 9 4.5 0
22 2001 2001-11-24 Boston College @ Syracuse L 5 122 24.4 2 1 3 3.0 0 0 0 0 0 0 0
22 Games 75 1215 16.2 13 4 55 13.8 0 1 12 12.0 0 41 301 7.3 1